sensor_id;sensor_type;location;lat;lon;timestamp;pressure;altitude;pressure_sealevel;temperature;humidity
58223;BME280;44020;50.890;15.796;2022-12-10T00:01:23;96517.84;;;1.28;85.31
58223;BME280;44020;50.890;15.796;2022-12-10T00:03:51;96513.52;;;1.24;85.40
58223;BME280;44020;50.890;15.796;2022-12-10T00:06:21;96507.27;;;1.23;85.68
58223;BME280;44020;50.890;15.796;2022-12-10T00:08:50;96513.65;;;1.21;85.57
58223;BME280;44020;50.890;15.796;2022-12-10T00:11:18;96513.42;;;1.19;85.99
58223;BME280;44020;50.890;15.796;2022-12-10T00:13:47;96516.83;;;1.17;85.97
58223;BME280;44020;50.890;15.796;2022-12-10T00:16:17;96513.88;;;1.17;86.25
58223;BME280;44020;50.890;15.796;2022-12-10T00:18:45;96518.77;;;1.17;86.09
58223;BME280;44020;50.890;15.796;2022-12-10T00:21:16;96521.45;;;1.16;86.19
58223;BME280;44020;50.890;15.796;2022-12-10T00:23:45;96522.88;;;1.16;86.43
58223;BME280;44020;50.890;15.796;2022-12-10T00:26:18;96523.05;;;1.16;86.36
58223;BME280;44020;50.890;15.796;2022-12-10T00:28:46;96525.77;;;1.17;86.13
58223;BME280;44020;50.890;15.796;2022-12-10T00:31:16;96524.38;;;1.17;86.32
58223;BME280;44020;50.890;15.796;2022-12-10T00:33:45;96528.05;;;1.17;86.34
58223;BME280;44020;50.890;15.796;2022-12-10T00:36:19;96530.45;;;1.18;86.38
58223;BME280;44020;50.890;15.796;2022-12-10T00:38:48;96534.63;;;1.18;86.35
58223;BME280;44020;50.890;15.796;2022-12-10T00:41:15;96536.23;;;1.18;86.45
58223;BME280;44020;50.890;15.796;2022-12-10T00:43:43;96538.58;;;1.16;86.65
58223;BME280;44020;50.890;15.796;2022-12-10T00:46:12;96538.34;;;1.18;86.62
58223;BME280;44020;50.890;15.796;2022-12-10T00:48:41;96536.89;;;1.18;86.65
58223;BME280;44020;50.890;15.796;2022-12-10T00:51:11;96533.34;;;1.20;86.90
58223;BME280;44020;50.890;15.796;2022-12-10T00:53:42;96535.58;;;1.20;86.94
58223;BME280;44020;50.890;15.796;2022-12-10T00:56:11;96540.46;;;1.20;86.79
58223;BME280;44020;50.890;15.796;2022-12-10T00:58:40;96536.69;;;1.19;86.75
58223;BME280;44020;50.890;15.796;2022-12-10T01:01:29;96537.23;;;1.19;86.94
58223;BME280;44020;50.890;15.796;2022-12-10T01:04:04;96535.53;;;1.18;86.82
58223;BME280;44020;50.890;15.796;2022-12-10T01:06:34;96542.75;;;1.17;87.06
58223;BME280;44020;50.890;15.796;2022-12-10T01:09:08;96540.50;;;1.16;86.78
58223;BME280;44020;50.890;15.796;2022-12-10T01:11:38;96543.35;;;1.15;86.61
58223;BME280;44020;50.890;15.796;2022-12-10T01:14:07;96542.32;;;1.15;87.06
58223;BME280;44020;50.890;15.796;2022-12-10T01:16:36;96542.59;;;1.16;87.18
58223;BME280;44020;50.890;15.796;2022-12-10T01:19:03;96543.20;;;1.18;87.24
58223;BME280;44020;50.890;15.796;2022-12-10T01:21:32;96541.41;;;1.19;87.48
58223;BME280;44020;50.890;15.796;2022-12-10T01:23:59;96542.52;;;1.21;87.78
58223;BME280;44020;50.890;15.796;2022-12-10T01:26:29;96542.55;;;1.21;87.31
58223;BME280;44020;50.890;15.796;2022-12-10T01:28:57;96538.40;;;1.16;87.32
58223;BME280;44020;50.890;15.796;2022-12-10T01:31:31;96541.98;;;1.15;87.44
58223;BME280;44020;50.890;15.796;2022-12-10T01:33:59;96543.20;;;1.14;87.53
58223;BME280;44020;50.890;15.796;2022-12-10T01:36:37;96547.29;;;1.13;87.56
58223;BME280;44020;50.890;15.796;2022-12-10T01:39:07;96545.02;;;1.11;87.33
58223;BME280;44020;50.890;15.796;2022-12-10T01:41:36;96545.01;;;1.10;87.63
58223;BME280;44020;50.890;15.796;2022-12-10T01:46:42;96550.96;;;1.10;87.80
58223;BME280;44020;50.890;15.796;2022-12-10T01:49:12;96551.58;;;1.12;87.54
58223;BME280;44020;50.890;15.796;2022-12-10T01:51:42;96549.11;;;1.12;87.99
58223;BME280;44020;50.890;15.796;2022-12-10T01:54:14;96550.73;;;1.14;88.03
58223;BME280;44020;50.890;15.796;2022-12-10T01:56:45;96550.82;;;1.16;88.19
58223;BME280;44020;50.890;15.796;2022-12-10T01:59:13;96548.07;;;1.15;87.94
58223;BME280;44020;50.890;15.796;2022-12-10T02:02:22;96546.67;;;1.15;87.87
58223;BME280;44020;50.890;15.796;2022-12-10T02:05:17;96547.84;;;1.16;87.77
58223;BME280;44020;50.890;15.796;2022-12-10T02:10:43;96545.23;;;1.16;87.92
58223;BME280;44020;50.890;15.796;2022-12-10T02:16:07;96541.35;;;1.17;87.61
58223;BME280;44020;50.890;15.796;2022-12-10T02:19:00;96541.77;;;1.19;87.71
58223;BME280;44020;50.890;15.796;2022-12-10T02:21:34;96538.14;;;1.22;87.84
58223;BME280;44020;50.890;15.796;2022-12-10T02:24:08;96541.94;;;1.22;87.85
58223;BME280;44020;50.890;15.796;2022-12-10T02:29:28;96547.79;;;1.21;87.81
58223;BME280;44020;50.890;15.796;2022-12-10T02:32:14;96547.73;;;1.19;87.97
58223;BME280;44020;50.890;15.796;2022-12-10T02:34:46;96540.80;;;1.17;88.04
58223;BME280;44020;50.890;15.796;2022-12-10T02:37:21;96540.25;;;1.18;88.17
58223;BME280;44020;50.890;15.796;2022-12-10T02:39:52;96537.39;;;1.15;87.79
58223;BME280;44020;50.890;15.796;2022-12-10T02:42:21;96537.08;;;1.12;87.66
58223;BME280;44020;50.890;15.796;2022-12-10T02:44:52;96533.90;;;1.12;87.90
58223;BME280;44020;50.890;15.796;2022-12-10T02:47:21;96539.65;;;1.13;87.99
58223;BME280;44020;50.890;15.796;2022-12-10T02:49:51;96544.21;;;1.12;88.19
58223;BME280;44020;50.890;15.796;2022-12-10T02:52:22;96547.58;;;1.12;88.02
58223;BME280;44020;50.890;15.796;2022-12-10T02:54:50;96551.54;;;1.13;88.06
58223;BME280;44020;50.890;15.796;2022-12-10T03:00:16;96551.95;;;1.15;88.49
58223;BME280;44020;50.890;15.796;2022-12-10T03:08:10;96547.49;;;1.16;88.15
58223;BME280;44020;50.890;15.796;2022-12-10T03:10:57;96549.14;;;1.15;88.20
58223;BME280;44020;50.890;15.796;2022-12-10T03:13:34;96550.23;;;1.11;87.76
58223;BME280;44020;50.890;15.796;2022-12-10T03:16:04;96550.46;;;1.10;88.36
58223;BME280;44020;50.890;15.796;2022-12-10T03:18:34;96551.64;;;1.11;88.41
58223;BME280;44020;50.890;15.796;2022-12-10T03:21:05;96555.62;;;1.11;88.34
58223;BME280;44020;50.890;15.796;2022-12-10T03:23:39;96558.86;;;1.13;88.49
58223;BME280;44020;50.890;15.796;2022-12-10T03:26:08;96558.69;;;1.13;88.23
58223;BME280;44020;50.890;15.796;2022-12-10T03:28:39;96558.98;;;1.11;88.35
58223;BME280;44020;50.890;15.796;2022-12-10T03:31:10;96562.54;;;1.10;88.27
58223;BME280;44020;50.890;15.796;2022-12-10T03:33:39;96559.83;;;1.08;88.62
58223;BME280;44020;50.890;15.796;2022-12-10T03:36:08;96557.92;;;1.08;88.53
58223;BME280;44020;50.890;15.796;2022-12-10T03:38:36;96558.09;;;1.08;88.37
58223;BME280;44020;50.890;15.796;2022-12-10T03:41:04;96560.55;;;1.08;88.31
58223;BME280;44020;50.890;15.796;2022-12-10T03:43:31;96561.39;;;1.09;88.43
58223;BME280;44020;50.890;15.796;2022-12-10T03:45:59;96565.59;;;1.08;88.35
58223;BME280;44020;50.890;15.796;2022-12-10T03:48:26;96569.30;;;1.07;88.39
58223;BME280;44020;50.890;15.796;2022-12-10T03:50:53;96572.81;;;1.07;88.49
58223;BME280;44020;50.890;15.796;2022-12-10T03:53:20;96571.42;;;1.07;88.44
58223;BME280;44020;50.890;15.796;2022-12-10T03:55:47;96568.59;;;1.08;88.47
58223;BME280;44020;50.890;15.796;2022-12-10T03:58:15;96568.48;;;1.07;88.53
58223;BME280;44020;50.890;15.796;2022-12-10T04:00:42;96567.98;;;1.06;88.60
58223;BME280;44020;50.890;15.796;2022-12-10T04:03:09;96565.89;;;1.06;88.58
58223;BME280;44020;50.890;15.796;2022-12-10T04:05:36;96568.36;;;1.05;88.48
58223;BME280;44020;50.890;15.796;2022-12-10T04:08:04;96567.88;;;1.04;88.60
58223;BME280;44020;50.890;15.796;2022-12-10T04:10:35;96569.04;;;1.06;88.28
58223;BME280;44020;50.890;15.796;2022-12-10T04:13:03;96568.70;;;1.05;88.47
58223;BME280;44020;50.890;15.796;2022-12-10T04:15:49;96570.59;;;1.06;88.54
58223;BME280;44020;50.890;15.796;2022-12-10T04:18:36;96566.50;;;1.07;88.29
58223;BME280;44020;50.890;15.796;2022-12-10T04:21:03;96560.32;;;1.09;88.31
58223;BME280;44020;50.890;15.796;2022-12-10T04:23:49;96558.80;;;1.11;88.43
58223;BME280;44020;50.890;15.796;2022-12-10T04:26:35;96557.91;;;1.11;88.55
58223;BME280;44020;50.890;15.796;2022-12-10T04:29:26;96557.38;;;1.08;88.20
58223;BME280;44020;50.890;15.796;2022-12-10T04:31:54;96561.95;;;1.07;88.20
58223;BME280;44020;50.890;15.796;2022-12-10T04:34:22;96566.81;;;1.08;88.39
58223;BME280;44020;50.890;15.796;2022-12-10T04:36:49;96572.40;;;1.09;88.45
58223;BME280;44020;50.890;15.796;2022-12-10T04:39:17;96578.20;;;1.08;88.31
58223;BME280;44020;50.890;15.796;2022-12-10T04:41:46;96578.71;;;1.08;88.14
58223;BME280;44020;50.890;15.796;2022-12-10T04:44:14;96580.29;;;1.08;88.06
58223;BME280;44020;50.890;15.796;2022-12-10T04:46:41;96579.73;;;1.09;88.34
58223;BME280;44020;50.890;15.796;2022-12-10T04:49:09;96584.90;;;1.10;88.38
58223;BME280;44020;50.890;15.796;2022-12-10T04:51:36;96582.23;;;1.11;88.20
58223;BME280;44020;50.890;15.796;2022-12-10T04:54:04;96583.13;;;1.14;88.40
58223;BME280;44020;50.890;15.796;2022-12-10T04:56:33;96586.05;;;1.15;88.41
58223;BME280;44020;50.890;15.796;2022-12-10T04:59:00;96583.92;;;1.16;88.26
58223;BME280;44020;50.890;15.796;2022-12-10T05:01:28;96584.37;;;1.17;88.67
58223;BME280;44020;50.890;15.796;2022-12-10T05:03:59;96583.35;;;1.16;88.49
58223;BME280;44020;50.890;15.796;2022-12-10T05:06:26;96581.40;;;1.14;88.09
58223;BME280;44020;50.890;15.796;2022-12-10T05:08:54;96578.23;;;1.07;87.77
58223;BME280;44020;50.890;15.796;2022-12-10T05:11:24;96572.02;;;1.05;88.08
58223;BME280;44020;50.890;15.796;2022-12-10T05:13:53;96573.84;;;1.04;88.30
58223;BME280;44020;50.890;15.796;2022-12-10T05:16:22;96570.50;;;1.04;88.28
58223;BME280;44020;50.890;15.796;2022-12-10T05:18:50;96571.23;;;1.03;88.38
58223;BME280;44020;50.890;15.796;2022-12-10T05:21:19;96574.61;;;1.02;88.25
58223;BME280;44020;50.890;15.796;2022-12-10T05:23:50;96570.94;;;1.02;88.36
58223;BME280;44020;50.890;15.796;2022-12-10T05:26:20;96571.77;;;1.03;88.61
58223;BME280;44020;50.890;15.796;2022-12-10T05:28:50;96576.79;;;1.04;88.52
58223;BME280;44020;50.890;15.796;2022-12-10T05:31:24;96574.25;;;1.07;88.61
58223;BME280;44020;50.890;15.796;2022-12-10T05:33:51;96571.89;;;1.08;88.80
58223;BME280;44020;50.890;15.796;2022-12-10T05:36:22;96569.95;;;1.09;88.65
58223;BME280;44020;50.890;15.796;2022-12-10T05:38:50;96576.67;;;1.07;88.39
58223;BME280;44020;50.890;15.796;2022-12-10T05:41:23;96578.09;;;1.07;88.30
58223;BME280;44020;50.890;15.796;2022-12-10T05:43:53;96574.39;;;1.07;88.38
58223;BME280;44020;50.890;15.796;2022-12-10T05:46:24;96569.86;;;1.07;88.19
58223;BME280;44020;50.890;15.796;2022-12-10T05:48:51;96573.46;;;1.08;88.20
58223;BME280;44020;50.890;15.796;2022-12-10T05:51:24;96572.41;;;1.08;88.00
58223;BME280;44020;50.890;15.796;2022-12-10T05:53:53;96575.40;;;1.08;88.45
58223;BME280;44020;50.890;15.796;2022-12-10T05:56:22;96577.66;;;1.08;88.39
58223;BME280;44020;50.890;15.796;2022-12-10T05:58:52;96578.47;;;1.09;88.34
58223;BME280;44020;50.890;15.796;2022-12-10T06:01:22;96578.52;;;1.09;88.51
58223;BME280;44020;50.890;15.796;2022-12-10T06:03:50;96575.85;;;1.06;88.21
58223;BME280;44020;50.890;15.796;2022-12-10T06:06:28;96579.21;;;1.05;88.10
58223;BME280;44020;50.890;15.796;2022-12-10T06:08:56;96584.48;;;1.04;88.27
58223;BME280;44020;50.890;15.796;2022-12-10T06:11:24;96587.67;;;1.03;88.13
58223;BME280;44020;50.890;15.796;2022-12-10T06:13:54;96588.86;;;1.04;88.06
58223;BME280;44020;50.890;15.796;2022-12-10T06:16:22;96590.15;;;1.07;88.10
58223;BME280;44020;50.890;15.796;2022-12-10T06:18:50;96589.66;;;1.09;88.36
58223;BME280;44020;50.890;15.796;2022-12-10T06:21:18;96587.55;;;1.13;88.32
58223;BME280;44020;50.890;15.796;2022-12-10T06:23:47;96588.77;;;1.16;88.21
58223;BME280;44020;50.890;15.796;2022-12-10T06:26:17;96592.35;;;1.18;88.37
58223;BME280;44020;50.890;15.796;2022-12-10T06:28:45;96592.16;;;1.22;88.65
58223;BME280;44020;50.890;15.796;2022-12-10T06:31:13;96595.27;;;1.23;88.22
58223;BME280;44020;50.890;15.796;2022-12-10T06:33:42;96597.04;;;1.22;88.33
58223;BME280;44020;50.890;15.796;2022-12-10T06:36:10;96605.77;;;1.23;88.31
58223;BME280;44020;50.890;15.796;2022-12-10T06:38:38;96607.06;;;1.22;87.87
58223;BME280;44020;50.890;15.796;2022-12-10T06:41:10;96606.98;;;1.20;88.12
58223;BME280;44020;50.890;15.796;2022-12-10T06:43:38;96601.10;;;1.18;87.83
58223;BME280;44020;50.890;15.796;2022-12-10T06:46:17;96596.08;;;1.17;88.05
58223;BME280;44020;50.890;15.796;2022-12-10T06:48:45;96602.05;;;1.17;87.93
58223;BME280;44020;50.890;15.796;2022-12-10T06:51:13;96604.89;;;1.16;88.00
58223;BME280;44020;50.890;15.796;2022-12-10T06:53:41;96612.30;;;1.15;87.95
58223;BME280;44020;50.890;15.796;2022-12-10T06:56:16;96607.60;;;1.14;88.26
58223;BME280;44020;50.890;15.796;2022-12-10T06:58:43;96608.86;;;1.14;87.98
58223;BME280;44020;50.890;15.796;2022-12-10T07:01:14;96608.67;;;1.14;88.21
58223;BME280;44020;50.890;15.796;2022-12-10T07:03:42;96607.44;;;1.14;88.00
58223;BME280;44020;50.890;15.796;2022-12-10T07:06:11;96613.46;;;1.13;88.01
58223;BME280;44020;50.890;15.796;2022-12-10T07:08:39;96613.91;;;1.11;88.04
58223;BME280;44020;50.890;15.796;2022-12-10T07:11:10;96615.27;;;1.12;87.88
58223;BME280;44020;50.890;15.796;2022-12-10T07:13:38;96617.27;;;1.10;87.83
58223;BME280;44020;50.890;15.796;2022-12-10T07:16:17;96621.52;;;1.09;87.72
58223;BME280;44020;50.890;15.796;2022-12-10T07:18:45;96626.83;;;1.08;87.72
58223;BME280;44020;50.890;15.796;2022-12-10T07:21:24;96626.61;;;1.09;87.91
58223;BME280;44020;50.890;15.796;2022-12-10T07:23:54;96633.48;;;1.11;87.81
58223;BME280;44020;50.890;15.796;2022-12-10T07:26:23;96638.48;;;1.12;87.90
58223;BME280;44020;50.890;15.796;2022-12-10T07:28:50;96639.23;;;1.15;87.89
58223;BME280;44020;50.890;15.796;2022-12-10T07:31:17;96638.45;;;1.16;88.14
58223;BME280;44020;50.890;15.796;2022-12-10T07:33:45;96641.00;;;1.18;88.07
58223;BME280;44020;50.890;15.796;2022-12-10T07:36:12;96640.31;;;1.18;87.91
58223;BME280;44020;50.890;15.796;2022-12-10T07:38:41;96637.11;;;1.19;87.90
58223;BME280;44020;50.890;15.796;2022-12-10T07:41:10;96635.05;;;1.18;87.63
58223;BME280;44020;50.890;15.796;2022-12-10T07:43:40;96633.38;;;1.16;87.42
58223;BME280;44020;50.890;15.796;2022-12-10T07:46:10;96635.11;;;1.17;87.61
58223;BME280;44020;50.890;15.796;2022-12-10T07:48:40;96631.29;;;1.17;87.56
58223;BME280;44020;50.890;15.796;2022-12-10T07:51:08;96629.44;;;1.15;87.62
58223;BME280;44020;50.890;15.796;2022-12-10T07:53:36;96629.60;;;1.15;87.86
58223;BME280;44020;50.890;15.796;2022-12-10T07:56:04;96632.33;;;1.16;87.82
58223;BME280;44020;50.890;15.796;2022-12-10T07:58:32;96629.88;;;1.17;88.01
58223;BME280;44020;50.890;15.796;2022-12-10T08:01:12;96635.79;;;1.17;88.04
58223;BME280;44020;50.890;15.796;2022-12-10T08:03:40;96634.73;;;1.17;87.91
58223;BME280;44020;50.890;15.796;2022-12-10T08:06:16;96639.85;;;1.16;88.07
58223;BME280;44020;50.890;15.796;2022-12-10T08:08:44;96640.05;;;1.16;88.07
58223;BME280;44020;50.890;15.796;2022-12-10T08:11:13;96641.64;;;1.16;87.78
58223;BME280;44020;50.890;15.796;2022-12-10T08:13:41;96641.18;;;1.14;87.85
58223;BME280;44020;50.890;15.796;2022-12-10T08:16:15;96641.05;;;1.14;87.77
58223;BME280;44020;50.890;15.796;2022-12-10T08:18:43;96640.43;;;1.15;87.85
58223;BME280;44020;50.890;15.796;2022-12-10T08:21:16;96642.05;;;1.14;87.53
58223;BME280;44020;50.890;15.796;2022-12-10T08:23:44;96635.34;;;1.16;88.10
58223;BME280;44020;50.890;15.796;2022-12-10T08:26:14;96637.28;;;1.16;87.86
58223;BME280;44020;50.890;15.796;2022-12-10T08:28:43;96636.23;;;1.16;88.37
58223;BME280;44020;50.890;15.796;2022-12-10T08:31:11;96634.42;;;1.16;88.10
58223;BME280;44020;50.890;15.796;2022-12-10T08:33:40;96637.25;;;1.16;88.33
58223;BME280;44020;50.890;15.796;2022-12-10T08:36:11;96638.88;;;1.18;88.31
58223;BME280;44020;50.890;15.796;2022-12-10T08:38:40;96642.52;;;1.19;88.15
58223;BME280;44020;50.890;15.796;2022-12-10T08:41:13;96645.17;;;1.19;88.15
58223;BME280;44020;50.890;15.796;2022-12-10T08:43:41;96648.29;;;1.19;87.81
58223;BME280;44020;50.890;15.796;2022-12-10T08:46:09;96653.28;;;1.21;88.08
58223;BME280;44020;50.890;15.796;2022-12-10T08:48:37;96655.18;;;1.21;87.90
58223;BME280;44020;50.890;15.796;2022-12-10T08:51:06;96652.89;;;1.22;88.00
58223;BME280;44020;50.890;15.796;2022-12-10T08:53:34;96656.85;;;1.23;88.19
58223;BME280;44020;50.890;15.796;2022-12-10T08:56:02;96661.37;;;1.23;88.30
58223;BME280;44020;50.890;15.796;2022-12-10T08:58:30;96664.10;;;1.25;88.15
58223;BME280;44020;50.890;15.796;2022-12-10T09:00:57;96669.78;;;1.27;88.27
58223;BME280;44020;50.890;15.796;2022-12-10T09:03:26;96668.98;;;1.29;88.11
58223;BME280;44020;50.890;15.796;2022-12-10T09:05:53;96668.62;;;1.29;88.14
58223;BME280;44020;50.890;15.796;2022-12-10T09:08:20;96670.31;;;1.30;88.17
58223;BME280;44020;50.890;15.796;2022-12-10T09:10:47;96670.87;;;1.30;88.01
58223;BME280;44020;50.890;15.796;2022-12-10T09:13:15;96665.89;;;1.28;88.29
58223;BME280;44020;50.890;15.796;2022-12-10T09:15:49;96667.41;;;1.29;88.06
58223;BME280;44020;50.890;15.796;2022-12-10T09:18:17;96664.76;;;1.29;87.94
58223;BME280;44020;50.890;15.796;2022-12-10T09:20:45;96665.05;;;1.30;87.98
58223;BME280;44020;50.890;15.796;2022-12-10T09:23:13;96665.30;;;1.32;88.19
58223;BME280;44020;50.890;15.796;2022-12-10T09:25:41;96664.53;;;1.34;87.99
58223;BME280;44020;50.890;15.796;2022-12-10T09:28:08;96662.73;;;1.35;88.33
58223;BME280;44020;50.890;15.796;2022-12-10T09:30:35;96657.73;;;1.37;88.41
58223;BME280;44020;50.890;15.796;2022-12-10T09:33:03;96656.79;;;1.38;88.16
58223;BME280;44020;50.890;15.796;2022-12-10T09:35:31;96655.91;;;1.38;88.46
58223;BME280;44020;50.890;15.796;2022-12-10T09:37:58;96655.16;;;1.39;88.22
58223;BME280;44020;50.890;15.796;2022-12-10T09:40:59;96650.48;;;1.38;88.15
58223;BME280;44020;50.890;15.796;2022-12-10T09:49:01;96641.77;;;1.34;87.60
58223;BME280;44020;50.890;15.796;2022-12-10T09:51:35;96635.35;;;1.33;87.67
58223;BME280;44020;50.890;15.796;2022-12-10T09:59:50;96628.66;;;1.37;87.97
58223;BME280;44020;50.890;15.796;2022-12-10T10:02:24;96625.13;;;1.38;87.88
58223;BME280;44020;50.890;15.796;2022-12-10T10:05:11;96624.23;;;1.38;87.92
58223;BME280;44020;50.890;15.796;2022-12-10T10:07:46;96620.66;;;1.40;87.63
58223;BME280;44020;50.890;15.796;2022-12-10T10:10:28;96621.41;;;1.39;87.80
58223;BME280;44020;50.890;15.796;2022-12-10T10:15:40;96626.35;;;1.38;87.85
58223;BME280;44020;50.890;15.796;2022-12-10T10:18:35;96627.38;;;1.38;87.35
58223;BME280;44020;50.890;15.796;2022-12-10T10:21:09;96627.55;;;1.38;87.38
58223;BME280;44020;50.890;15.796;2022-12-10T10:23:39;96628.23;;;1.38;87.74
58223;BME280;44020;50.890;15.796;2022-12-10T10:26:09;96631.88;;;1.39;87.69
58223;BME280;44020;50.890;15.796;2022-12-10T10:28:39;96634.73;;;1.38;87.29
58223;BME280;44020;50.890;15.796;2022-12-10T10:31:20;96637.75;;;1.37;87.54
58223;BME280;44020;50.890;15.796;2022-12-10T10:33:55;96637.30;;;1.39;87.68
58223;BME280;44020;50.890;15.796;2022-12-10T10:36:26;96635.63;;;1.41;87.92
58223;BME280;44020;50.890;15.796;2022-12-10T10:38:55;96633.86;;;1.41;87.70
58223;BME280;44020;50.890;15.796;2022-12-10T10:41:25;96631.56;;;1.42;87.57
58223;BME280;44020;50.890;15.796;2022-12-10T10:44:00;96623.17;;;1.42;87.74
58223;BME280;44020;50.890;15.796;2022-12-10T10:46:29;96618.95;;;1.42;87.64
58223;BME280;44020;50.890;15.796;2022-12-10T10:49:14;96617.98;;;1.40;87.22
58223;BME280;44020;50.890;15.796;2022-12-10T10:51:43;96622.20;;;1.40;87.33
58223;BME280;44020;50.890;15.796;2022-12-10T10:54:31;96617.02;;;1.39;87.01
58223;BME280;44020;50.890;15.796;2022-12-10T10:57:02;96612.29;;;1.39;86.95
58223;BME280;44020;50.890;15.796;2022-12-10T10:59:33;96613.55;;;1.38;87.50
58223;BME280;44020;50.890;15.796;2022-12-10T11:02:35;96612.89;;;1.38;87.28
58223;BME280;44020;50.890;15.796;2022-12-10T11:07:42;96615.04;;;1.37;87.45
58223;BME280;44020;50.890;15.796;2022-12-10T11:10:23;96613.11;;;1.36;87.19
58223;BME280;44020;50.890;15.796;2022-12-10T11:15:33;96593.98;;;1.37;87.38
58223;BME280;44020;50.890;15.796;2022-12-10T11:18:01;96591.19;;;1.38;87.15
58223;BME280;44020;50.890;15.796;2022-12-10T11:20:34;96598.46;;;1.36;86.85
58223;BME280;44020;50.890;15.796;2022-12-10T11:23:08;96612.67;;;1.35;86.91
58223;BME280;44020;50.890;15.796;2022-12-10T11:26:11;96615.12;;;1.35;87.30
58223;BME280;44020;50.890;15.796;2022-12-10T11:40:02;96621.09;;;1.41;87.28
58223;BME280;44020;50.890;15.796;2022-12-10T11:43:00;96617.40;;;1.42;87.23
58223;BME280;44020;50.890;15.796;2022-12-10T11:54:04;96603.58;;;1.38;86.78
58223;BME280;44020;50.890;15.796;2022-12-10T11:56:56;96600.85;;;1.37;86.83
58223;BME280;44020;50.890;15.796;2022-12-10T11:59:41;96608.21;;;1.37;86.92
58223;BME280;44020;50.890;15.796;2022-12-10T12:02:33;96612.86;;;1.35;87.07
58223;BME280;44020;50.890;15.796;2022-12-10T12:10:43;96613.55;;;1.38;87.34
58223;BME280;44020;50.890;15.796;2022-12-10T12:13:18;96616.20;;;1.38;87.14
58223;BME280;44020;50.890;15.796;2022-12-10T12:16:13;96618.05;;;1.39;87.39
58223;BME280;44020;50.890;15.796;2022-12-10T12:18:49;96618.30;;;1.41;87.01
58223;BME280;44020;50.890;15.796;2022-12-10T12:21:19;96621.80;;;1.41;87.47
58223;BME280;44020;50.890;15.796;2022-12-10T12:26:21;96620.64;;;1.40;86.84
58223;BME280;44020;50.890;15.796;2022-12-10T12:29:18;96618.37;;;1.40;86.78
58223;BME280;44020;50.890;15.796;2022-12-10T12:36:02;96617.34;;;1.36;86.74
58223;BME280;44020;50.890;15.796;2022-12-10T12:38:42;96617.38;;;1.35;86.96
58223;BME280;44020;50.890;15.796;2022-12-10T12:44:08;96611.89;;;1.36;87.17
58223;BME280;44020;50.890;15.796;2022-12-10T12:46:44;96612.15;;;1.35;87.36
58223;BME280;44020;50.890;15.796;2022-12-10T12:49:32;96610.10;;;1.37;87.35
58223;BME280;44020;50.890;15.796;2022-12-10T12:52:09;96609.56;;;1.37;87.20
58223;BME280;44020;50.890;15.796;2022-12-10T12:54:41;96608.40;;;1.36;86.90
58223;BME280;44020;50.890;15.796;2022-12-10T13:04:55;96593.13;;;1.34;86.85
58223;BME280;44020;50.890;15.796;2022-12-10T13:10:18;96584.95;;;1.30;86.93
58223;BME280;44020;50.890;15.796;2022-12-10T13:13:05;96587.77;;;1.22;86.79
58223;BME280;44020;50.890;15.796;2022-12-10T13:15:36;96597.42;;;1.21;87.25
58223;BME280;44020;50.890;15.796;2022-12-10T13:20:44;96610.67;;;1.23;87.48
58223;BME280;44020;50.890;15.796;2022-12-10T13:41:40;96624.11;;;1.06;87.63
58223;BME280;44020;50.890;15.796;2022-12-10T13:49:52;96645.70;;;1.08;87.68
58223;BME280;44020;50.890;15.796;2022-12-10T13:52:26;96648.27;;;1.09;87.80
58223;BME280;44020;50.890;15.796;2022-12-10T13:57:56;96651.48;;;1.14;87.90
58223;BME280;44020;50.890;15.796;2022-12-10T14:00:40;96650.92;;;1.15;87.73
58223;BME280;44020;50.890;15.796;2022-12-10T14:06:34;96653.31;;;1.13;87.25
58223;BME280;44020;50.890;15.796;2022-12-10T14:12:35;96653.73;;;1.08;87.25
58223;BME280;44020;50.890;15.796;2022-12-10T14:15:07;96660.27;;;1.07;87.34
58223;BME280;44020;50.890;15.796;2022-12-10T14:17:41;96672.35;;;1.07;87.33
58223;BME280;44020;50.890;15.796;2022-12-10T14:20:23;96668.87;;;0.99;87.15
58223;BME280;44020;50.890;15.796;2022-12-10T14:22:54;96672.70;;;0.92;87.45
58223;BME280;44020;50.890;15.796;2022-12-10T14:25:45;96673.84;;;0.91;87.63
58223;BME280;44020;50.890;15.796;2022-12-10T14:28:17;96677.14;;;0.87;87.55
58223;BME280;44020;50.890;15.796;2022-12-10T14:30:48;96682.02;;;0.84;87.60
58223;BME280;44020;50.890;15.796;2022-12-10T14:33:19;96681.48;;;0.84;87.69
58223;BME280;44020;50.890;15.796;2022-12-10T14:35:50;96686.14;;;0.86;87.77
58223;BME280;44020;50.890;15.796;2022-12-10T14:38:29;96685.16;;;0.88;87.59
58223;BME280;44020;50.890;15.796;2022-12-10T14:40:58;96679.11;;;0.87;87.51
58223;BME280;44020;50.890;15.796;2022-12-10T14:43:34;96672.41;;;0.84;87.57
58223;BME280;44020;50.890;15.796;2022-12-10T14:46:05;96671.66;;;0.85;87.69
58223;BME280;44020;50.890;15.796;2022-12-10T14:48:39;96670.48;;;0.87;87.74
58223;BME280;44020;50.890;15.796;2022-12-10T14:51:16;96671.04;;;0.91;87.96
58223;BME280;44020;50.890;15.796;2022-12-10T14:53:46;96676.89;;;0.92;87.73
58223;BME280;44020;50.890;15.796;2022-12-10T14:59:05;96678.83;;;0.96;87.80
58223;BME280;44020;50.890;15.796;2022-12-10T15:01:41;96683.81;;;0.94;87.68
58223;BME280;44020;50.890;15.796;2022-12-10T15:04:15;96684.35;;;0.90;87.75
58223;BME280;44020;50.890;15.796;2022-12-10T15:06:43;96683.05;;;0.92;87.74
58223;BME280;44020;50.890;15.796;2022-12-10T15:09:22;96688.99;;;0.91;87.60
58223;BME280;44020;50.890;15.796;2022-12-10T15:11:56;96696.21;;;0.91;87.45
58223;BME280;44020;50.890;15.796;2022-12-10T15:14:26;96700.66;;;0.89;87.16
58223;BME280;44020;50.890;15.796;2022-12-10T15:16:55;96701.41;;;0.88;87.49
58223;BME280;44020;50.890;15.796;2022-12-10T15:21:58;96701.88;;;0.89;87.74
58223;BME280;44020;50.890;15.796;2022-12-10T15:24:41;96703.98;;;0.89;87.35
58223;BME280;44020;50.890;15.796;2022-12-10T15:27:23;96701.83;;;0.90;87.29
58223;BME280;44020;50.890;15.796;2022-12-10T15:29:51;96704.54;;;0.92;87.62
58223;BME280;44020;50.890;15.796;2022-12-10T15:32:24;96706.82;;;0.92;87.37